Time;durP1;ratioP1;P1;durP2;ratioP2;P2;SDS_P1;SDS_P2;PMS_P1;PMS_P2;Temp;Humidity;BMP_temperature;BMP_pressure;BME280_temperature;BME280_humidity;BME280_pressure;Samples;Min_cycle;Max_cycle;Signal;HPM_P1;HPM_P2
2023/02/16 00:00:44;;;;;;;95.00;47.00;;;;;;;1.84;90.37;101555.93;103891;1277;102267;-78
2023/02/16 00:03:36;;;;;;;92.00;45.60;;;;;;;1.81;90.24;101555.25;103959;1277;99175;-80
2023/02/16 00:06:25;;;;;;;91.90;43.40;;;;;;;1.77;90.19;101552.72;103865;1281;99145;-79
2023/02/16 00:09:10;;;;;;;92.50;44.80;;;;;;;1.75;90.22;101549.55;103895;1282;98065;-78
2023/02/16 00:15:00;;;;;;;83.90;40.30;;;;;;;1.70;90.03;101543.17;103766;1283;101504;-78
2023/02/16 00:17:45;;;;;;;87.50;40.90;;;;;;;1.67;90.06;101539.41;103784;1282;100404;-77
2023/02/16 00:20:30;;;;;;;84.20;41.50;;;;;;;1.63;89.94;101536.46;103748;1280;98545;-78
2023/02/16 00:23:15;;;;;;;88.80;42.20;;;;;;;1.62;89.95;101537.41;103850;1282;98216;-77
2023/02/16 00:26:00;;;;;;;86.40;41.90;;;;;;;1.59;89.73;101529.16;103788;1279;98462;-77
2023/02/16 00:28:48;;;;;;;95.00;43.70;;;;;;;1.58;89.94;101527.69;103833;1280;101447;-78
2023/02/16 00:31:33;;;;;;;91.30;42.90;;;;;;;1.57;90.00;101520.52;103900;1279;99276;-79
2023/02/16 00:34:33;;;;;;;92.70;44.40;;;;;;;1.55;90.12;101514.84;103877;1282;98816;-78
2023/02/16 00:37:18;;;;;;;86.30;41.80;;;;;;;1.55;90.20;101515.92;104174;1282;98030;-78
2023/02/16 00:40:03;;;;;;;90.20;40.70;;;;;;;1.53;90.10;101515.50;103840;1282;97997;-78
2023/02/16 00:42:48;;;;;;;99.80;45.00;;;;;;;1.51;90.00;101513.71;103875;1279;101382;-78
2023/02/16 00:45:36;;;;;;;90.80;43.90;;;;;;;1.49;89.84;101507.02;103807;1282;99912;-78
2023/02/16 00:48:21;;;;;;;99.00;44.80;;;;;;;1.46;89.79;101503.55;103817;1280;98125;-78
2023/02/16 00:51:07;;;;;;;100.60;45.70;;;;;;;1.44;89.93;101499.42;103842;1282;97919;-77
2023/02/16 00:53:51;;;;;;;98.30;44.90;;;;;;;1.42;89.77;101494.30;103742;1279;98545;-79
2023/02/16 00:56:37;;;;;;;98.80;48.20;;;;;;;1.40;89.71;101496.72;103696;1279;101350;-78
2023/02/16 00:59:22;;;;;;;108.60;52.50;;;;;;;1.38;89.99;101491.94;103795;1282;100051;-78
2023/02/16 01:02:06;;;;;;;105.10;49.10;;;;;;;1.37;90.00;101486.39;103810;1283;98338;-81
2023/02/16 01:04:53;;;;;;;99.40;48.70;;;;;;;1.36;89.77;101485.60;103780;1280;97935;-79
2023/02/16 01:13:58;;;;;;;120.30;55.60;;;;;;;1.27;90.22;101489.39;103825;1279;99544;-77
2023/02/16 01:16:43;;;;;;;128.20;59.20;;;;;;;1.25;90.25;101486.38;103814;1279;98996;-77
2023/02/16 01:19:28;;;;;;;126.90;58.80;;;;;;;1.22;90.15;101481.98;103804;1280;97994;-78
2023/02/16 01:22:13;;;;;;;115.70;56.50;;;;;;;1.18;89.92;101484.58;103700;1279;99712;-78
2023/02/16 01:24:57;;;;;;;118.80;54.50;;;;;;;1.13;89.78;101485.23;103712;1279;102695;-78
2023/02/16 01:27:43;;;;;;;117.80;53.70;;;;;;;1.11;89.64;101485.41;103751;1280;99167;-78
2023/02/16 01:30:31;;;;;;;114.00;53.30;;;;;;;1.08;89.49;101481.52;103626;1279;99118;-77
2023/02/16 01:33:16;;;;;;;109.40;51.50;;;;;;;1.07;89.42;101481.83;103550;1280;99313;-79
2023/02/16 01:36:02;;;;;;;105.30;51.50;;;;;;;1.05;89.43;101480.91;103671;1282;98122;-77
2023/02/16 01:38:47;;;;;;;106.70;47.50;;;;;;;1.05;89.63;101474.59;103707;1282;101425;-77
2023/02/16 01:42:00;;;;;;;102.00;49.10;;;;;;;1.06;89.76;101473.28;103856;1282;100518;-79
2023/02/16 01:44:50;;;;;;;111.30;50.20;;;;;;;1.06;89.98;101465.50;103853;1281;98346;-78
2023/02/16 01:47:55;;;;;;;107.40;53.20;;;;;;;1.07;90.08;101462.45;103737;1280;98011;-78
2023/02/16 01:51:13;;;;;;;103.70;50.00;;;;;;;1.08;90.31;101457.80;103984;1280;98555;-78
2023/02/16 01:54:20;;;;;;;99.50;48.60;;;;;;;1.08;90.37;101457.27;103694;1282;103085;-79
2023/02/16 01:57:24;;;;;;;102.20;48.10;;;;;;;1.09;90.36;101455.13;103850;1279;99224;-78
2023/02/16 02:00:26;;;;;;;101.70;47.70;;;;;;;1.09;90.46;101451.58;103753;1278;98856;-79
2023/02/16 02:06:31;;;;;;;103.00;47.40;;;;;;;1.13;90.87;101437.46;104439;1280;98663;-78
2023/02/16 02:09:24;;;;;;;97.20;46.10;;;;;;;1.14;90.72;101435.80;103820;1282;101396;-77
2023/02/16 02:12:29;;;;;;;100.60;47.90;;;;;;;1.12;90.47;101432.36;103797;1279;100400;-78
2023/02/16 02:15:18;;;;;;;102.80;48.20;;;;;;;1.10;90.04;101434.49;103863;1282;98655;-78
2023/02/16 02:18:03;;;;;;;92.40;46.10;;;;;;;1.04;89.57;101430.63;103907;1279;98122;-77
2023/02/16 02:24:35;;;;;;;86.10;42.30;;;;;;;0.95;89.06;101431.84;103607;1279;102378;-80
2023/02/16 02:27:24;;;;;;;90.70;42.50;;;;;;;0.90;89.05;101425.49;103882;1282;99470;-81
2023/02/16 02:30:54;;;;;;;85.20;41.30;;;;;;;0.87;88.99;101418.86;103780;1281;99041;-79
2023/02/16 02:33:59;;;;;;;89.40;42.30;;;;;;;0.84;89.14;101415.19;103079;1291;99165;-78
2023/02/16 02:36:52;;;;;;;85.20;40.10;;;;;;;0.82;89.29;101412.47;103535;1281;98591;-77
2023/02/16 02:40:04;;;;;;;92.90;43.90;;;;;;;0.82;89.34;101408.85;103669;1279;101472;-77
2023/02/16 02:43:07;;;;;;;89.20;43.20;;;;;;;0.81;89.34;101403.25;103678;1282;100720;-80
2023/02/16 02:46:00;;;;;;;98.70;42.90;;;;;;;0.83;89.66;101392.60;103794;1280;98531;-79
2023/02/16 02:48:45;;;;;;;100.20;45.80;;;;;;;0.83;89.93;101390.27;103804;1281;98043;-80
2023/02/16 02:51:32;;;;;;;95.60;45.60;;;;;;;0.83;90.01;101386.40;103897;1282;99845;-80
2023/02/16 03:00:53;;;;;;;104.10;43.70;;;;;;;0.83;90.86;101374.62;103853;1279;98498;-78
2023/02/16 03:03:47;;;;;;;102.50;45.50;;;;;;;0.83;90.93;101367.09;103869;1282;97890;-79
2023/02/16 03:06:37;;;;;;;90.40;44.80;;;;;;;0.82;91.11;101365.36;103821;1282;98497;-79
2023/02/16 03:09:22;;;;;;;99.70;44.50;;;;;;;0.82;91.08;101362.41;103822;1282;101928;-78
2023/02/16 03:15:16;;;;;;;97.90;45.40;;;;;;;0.82;91.07;101361.52;103809;1282;98065;-80
2023/02/16 03:30:30;;;;;;;;;;;;;;;0.79;90.69;101348.87;103757;1281;98502;-78
2023/02/16 03:33:15;;;;;;;104.90;47.80;;;;;;;0.76;90.73;101347.84;103815;1282;97920;-79
2023/02/16 03:36:00;;;;;;;98.40;45.10;;;;;;;0.75;90.62;101343.89;103839;1282;98453;-78
2023/02/16 03:38:45;;;;;;;104.30;48.10;;;;;;;0.74;90.66;101341.65;104089;1280;102574;-78
2023/02/16 03:41:32;;;;;;;96.40;46.80;;;;;;;0.73;90.64;101341.53;103965;1280;99380;-79
2023/02/16 03:44:18;;;;;;;104.10;47.70;;;;;;;0.72;90.64;101337.41;103937;1281;98355;-79
2023/02/16 03:47:03;;;;;;;105.90;50.00;;;;;;;0.70;90.61;101332.42;103806;1282;98900;-77
2023/02/16 03:49:47;;;;;;;107.00;47.70;;;;;;;0.69;90.78;101330.24;103928;1281;98097;-78
2023/02/16 03:52:32;;;;;;;104.00;47.60;;;;;;;0.69;90.84;101330.10;103937;1279;101431;-79
2023/02/16 03:55:18;;;;;;;104.00;47.20;;;;;;;0.68;90.84;101330.29;103812;1280;99964;-78
2023/02/16 03:58:05;;;;;;;114.70;48.60;;;;;;;0.70;90.94;101330.57;103846;1282;99260;-77
2023/02/16 04:00:50;;;;;;;111.50;50.20;;;;;;;0.69;90.93;101332.18;103881;1282;98002;-78
2023/02/16 04:03:35;;;;;;;108.90;48.20;;;;;;;0.69;90.94;101332.02;103558;1280;98014;-77
2023/02/16 04:06:19;;;;;;;105.30;47.80;;;;;;;0.70;91.00;101330.88;103803;1281;102575;-79
2023/02/16 04:09:04;;;;;;;110.00;50.40;;;;;;;0.69;90.95;101327.75;103886;1280;99469;-80
2023/02/16 04:14:52;;;;;;;116.00;51.10;;;;;;;0.67;90.97;101323.36;103832;1278;98129;-79
2023/02/16 04:17:37;;;;;;;107.90;51.00;;;;;;;0.67;90.72;101322.85;103829;1278;98588;-78
2023/02/16 04:20:26;;;;;;;117.70;52.60;;;;;;;0.65;90.44;101319.50;103912;1282;102693;-79
2023/02/16 04:23:11;;;;;;;112.70;50.60;;;;;;;0.62;90.23;101315.64;103873;1280;99114;-77
2023/02/16 04:25:56;;;;;;;104.90;49.30;;;;;;;0.59;90.13;101310.88;103812;1281;99519;-78
2023/02/16 04:28:41;;;;;;;107.60;49.10;;;;;;;0.56;90.13;101310.78;103810;1279;98023;-77
2023/02/16 04:31:26;;;;;;;112.80;48.70;;;;;;;0.54;90.26;101313.36;103852;1282;98556;-79
2023/02/16 04:34:10;;;;;;;101.00;48.70;;;;;;;0.53;90.20;101308.52;103865;1279;102691;-77
2023/02/16 04:36:55;;;;;;;107.20;50.30;;;;;;;0.53;90.19;101312.05;103818;1280;100469;-78
2023/02/16 04:39:39;;;;;;;111.60;50.30;;;;;;;0.52;90.23;101308.80;103813;1282;98793;-77
2023/02/16 04:42:24;;;;;;;113.90;49.40;;;;;;;0.50;90.27;101304.52;103764;1279;98055;-77
2023/02/16 04:45:10;;;;;;;104.10;47.90;;;;;;;0.50;90.51;101305.74;103747;1282;97956;-77
2023/02/16 04:47:55;;;;;;;121.60;52.70;;;;;;;0.49;90.52;101308.61;103557;1280;101398;-78
2023/02/16 04:50:40;;;;;;;108.50;51.00;;;;;;;0.49;90.51;101317.04;103747;1279;100463;-79
2023/02/16 04:53:24;;;;;;;107.00;49.30;;;;;;;0.49;90.36;101312.85;103813;1278;99201;-77
2023/02/16 04:56:10;;;;;;;114.60;52.70;;;;;;;0.47;90.26;101305.78;103816;1280;98012;-79
2023/02/16 04:58:55;;;;;;;110.00;49.30;;;;;;;0.46;90.24;101301.33;103820;1282;97925;-77
2023/02/16 05:01:40;;;;;;;113.80;51.20;;;;;;;0.44;90.35;101298.59;103857;1279;102872;-79
2023/02/16 05:04:25;;;;;;;104.70;49.50;;;;;;;0.44;90.27;101298.77;103854;1282;99094;-79
2023/02/16 05:07:09;;;;;;;116.00;49.80;;;;;;;0.43;90.15;101296.38;103847;1281;98068;-77
2023/02/16 05:09:54;;;;;;;111.20;49.80;;;;;;;0.42;90.28;101301.39;103817;1282;98002;-78
2023/02/16 05:15:43;;;;;;;111.00;49.90;;;;;;;0.40;90.36;101298.19;103854;1282;102733;-80
2023/02/16 05:18:28;;;;;;;111.50;51.20;;;;;;;0.39;90.38;101292.83;103779;1283;99177;-78
2023/02/16 05:21:31;;;;;;;110.70;50.50;;;;;;;0.39;90.41;101289.68;103845;1280;98138;-77
2023/02/16 05:24:16;;;;;;;107.50;48.30;;;;;;;0.40;90.57;101292.59;103717;1295;98117;-78
2023/02/16 05:27:03;;;;;;;109.30;50.50;;;;;;;0.40;90.67;101291.00;103782;1282;97935;-78
2023/02/16 05:29:48;;;;;;;109.30;49.30;;;;;;;0.38;90.61;101284.94;103841;1282;102716;-78
2023/02/16 05:32:32;;;;;;;104.40;48.90;;;;;;;0.39;90.62;101278.25;103820;1282;99262;-78
2023/02/16 05:35:18;;;;;;;108.50;50.50;;;;;;;0.39;90.52;101280.87;103731;1282;99111;-78
2023/02/16 05:38:03;;;;;;;110.10;49.90;;;;;;;0.38;90.64;101287.59;103762;1280;98020;-78
2023/02/16 05:40:48;;;;;;;108.60;49.50;;;;;;;0.37;90.52;101289.63;103845;1277;97995;-78
2023/02/16 05:43:33;;;;;;;107.70;48.20;;;;;;;0.34;90.40;101296.48;103826;1279;101469;-78
2023/02/16 05:46:20;;;;;;;112.30;49.80;;;;;;;0.31;90.47;101295.63;103757;1282;99981;-77
2023/02/16 05:49:05;;;;;;;106.30;49.50;;;;;;;0.29;90.50;101294.57;104118;1281;98048;-77
2023/02/16 05:51:50;;;;;;;105.40;46.30;;;;;;;0.28;90.73;101293.61;103883;1282;97998;-78
2023/02/16 05:54:35;;;;;;;112.60;50.80;;;;;;;0.29;90.73;101285.11;103901;1282;98472;-77
2023/02/16 05:57:20;;;;;;;107.40;49.70;;;;;;;0.29;90.83;101292.98;103817;1279;102855;-78
2023/02/16 06:00:05;;;;;;;111.50;49.70;;;;;;;0.27;90.69;101304.36;103820;1282;99275;-78
2023/02/16 06:02:49;;;;;;;116.70;51.70;;;;;;;0.24;90.69;101304.19;103781;1278;98710;-79
2023/02/16 06:05:34;;;;;;;105.30;48.70;;;;;;;0.24;91.00;101295.62;103786;1282;99118;-77
2023/02/16 06:08:19;;;;;;;111.00;50.20;;;;;;;0.24;91.09;101289.63;103837;1280;98504;-77
2023/02/16 06:11:05;;;;;;;107.50;51.40;;;;;;;0.26;91.23;101292.69;103683;1279;102348;-77
2023/02/16 06:13:50;;;;;;;112.90;52.30;;;;;;;0.26;91.40;101292.31;104001;1282;99187;-78
2023/02/16 06:16:38;;;;;;;115.40;53.30;;;;;;;0.26;91.64;101293.70;103826;1280;99104;-77
2023/02/16 06:19:22;;;;;;;112.70;54.30;;;;;;;0.26;91.61;101294.05;103810;1280;98004;-79
2023/02/16 06:22:07;;;;;;;117.10;52.30;;;;;;;0.26;91.85;101295.11;103845;1282;98899;-78
2023/02/16 06:24:52;;;;;;;117.30;50.70;;;;;;;0.28;91.99;101292.54;103853;1282;102722;-78
2023/02/16 06:27:37;;;;;;;113.30;52.00;;;;;;;0.29;92.03;101293.49;103801;1282;99173;-76
2023/02/16 06:30:22;;;;;;;116.10;51.60;;;;;;;0.30;92.13;101289.55;103867;1280;98833;-77
2023/02/16 06:33:08;;;;;;;119.10;53.10;;;;;;;0.32;92.25;101285.73;103761;1281;99370;-78
2023/02/16 06:35:52;;;;;;;110.60;50.50;;;;;;;0.33;92.29;101284.62;103801;1280;98613;-78
2023/02/16 06:38:37;;;;;;;104.80;50.70;;;;;;;0.34;92.29;101289.67;103795;1278;101806;-78
2023/02/16 06:41:33;;;;;;;121.70;55.70;;;;;;;0.35;92.54;101296.09;103825;1279;100504;-77
2023/02/16 06:44:18;;;;;;;125.60;54.70;;;;;;;0.37;92.59;101298.60;103832;1281;98882;-78
2023/02/16 06:47:03;;;;;;;118.10;53.40;;;;;;;0.38;92.60;101296.59;103846;1282;98127;-79
2023/02/16 06:49:47;;;;;;;116.00;53.00;;;;;;;0.38;92.70;101292.90;103767;1283;98573;-77
2023/02/16 06:52:32;;;;;;;127.90;57.90;;;;;;;0.36;92.76;101289.84;103866;1282;101397;-77
2023/02/16 06:55:17;;;;;;;111.40;53.00;;;;;;;0.38;93.02;101289.52;103860;1281;100435;-79
2023/02/16 06:58:04;;;;;;;123.10;55.00;;;;;;;0.42;93.15;101286.83;103841;1280;98482;-79
2023/02/16 07:00:49;;;;;;;121.70;53.80;;;;;;;0.42;93.25;101280.27;106038;1282;98050;-83
2023/02/16 07:03:34;;;;;;;128.20;57.40;;;;;;;0.45;93.35;101277.09;105278;1282;100540;-82
2023/02/16 07:06:19;;;;;;;116.20;55.90;;;;;;;0.47;93.53;101274.34;105276;1279;101441;-82
2023/02/16 07:09:04;;;;;;;110.10;51.00;;;;;;;0.49;93.78;101270.80;105040;1280;99694;-86
2023/02/16 07:11:49;;;;;;;112.90;51.40;;;;;;;0.50;93.99;101268.48;104681;1277;98117;-82
2023/02/16 07:14:34;;;;;;;107.80;49.40;;;;;;;0.53;94.11;101265.48;104542;1284;98145;-82
2023/02/16 07:17:18;;;;;;;117.90;55.60;;;;;;;0.56;94.19;101268.40;104541;1284;98545;-86
2023/02/16 07:20:06;;;;;;;121.10;55.00;;;;;;;0.62;94.48;101266.10;104616;1280;102708;-86
2023/02/16 07:22:51;;;;;;;119.70;58.30;;;;;;;0.66;94.55;101267.86;105006;1279;100452;-89
2023/02/16 07:25:36;;;;;;;134.50;66.40;;;;;;;0.71;94.68;101268.42;104883;1282;99009;-85
2023/02/16 07:28:23;;;;;;;119.20;58.50;;;;;;;0.75;95.00;101270.23;104735;1278;97989;-89
2023/02/16 07:31:12;;;;;;;126.60;66.20;;;;;;;0.79;95.02;101275.41;104763;1283;96889;-78
2023/02/16 07:33:56;;;;;;;129.60;69.60;;;;;;;0.83;95.21;101274.26;103672;1281;101459;-78
2023/02/16 07:36:43;;;;;;;143.70;76.40;;;;;;;0.88;95.42;101277.75;103957;1282;108309;-80
2023/02/16 07:39:31;;;;;;;132.10;71.30;;;;;;;0.94;95.62;101264.01;104432;1281;97991;-86
2023/02/16 07:42:16;;;;;;;119.90;57.70;;;;;;;1.01;95.87;101260.79;104861;1280;97926;-85
2023/02/16 07:45:05;;;;;;;119.50;57.20;;;;;;;1.08;95.98;101259.27;104795;1280;97918;-87
2023/02/16 07:47:50;;;;;;;112.00;56.10;;;;;;;1.14;96.04;101256.16;103581;1285;102618;-78
2023/02/16 07:50:36;;;;;;;111.40;54.40;;;;;;;1.21;96.13;101254.76;104045;1282;99614;-84
2023/02/16 07:53:21;;;;;;;113.60;52.90;;;;;;;1.28;96.20;101254.93;104079;1280;100031;-78
2023/02/16 07:59:15;;;;;;;101.60;47.60;;;;;;;1.39;96.43;101256.39;103737;1282;98463;-80
2023/02/16 08:01:59;;;;;;;103.40;54.20;;;;;;;1.45;96.36;101254.94;104051;1282;101400;-79
2023/02/16 08:04:45;;;;;;;107.00;50.50;;;;;;;1.49;96.41;101250.94;104102;1279;99885;-76
2023/02/16 08:07:30;;;;;;;109.00;56.30;;;;;;;1.52;96.42;101248.91;104653;1278;98020;-78
2023/02/16 08:10:17;;;;;;;123.80;67.10;;;;;;;1.57;96.62;101249.96;104638;1279;98005;-79
2023/02/16 08:13:02;;;;;;;110.70;55.20;;;;;;;1.64;96.69;101251.41;103728;1281;98033;-76
2023/02/16 08:15:47;;;;;;;119.00;57.30;;;;;;;1.69;96.60;101257.70;103525;1280;102620;-76
2023/02/16 08:18:31;;;;;;;111.30;52.70;;;;;;;1.72;96.38;101257.86;103595;1281;99175;-77
2023/02/16 08:21:19;;;;;;;118.70;58.30;;;;;;;1.75;96.59;101257.77;103688;1276;98044;-77
2023/02/16 08:24:06;;;;;;;112.50;54.30;;;;;;;1.80;96.44;101258.80;106689;1279;95963;-78
2023/02/16 08:26:52;;;;;;;93.10;47.80;;;;;;;1.85;96.27;101258.64;104168;1279;98471;-78
2023/02/16 08:29:37;;;;;;;102.70;49.90;;;;;;;1.88;96.12;101252.92;103741;1281;102879;-77
2023/02/16 08:32:22;;;;;;;102.50;51.10;;;;;;;1.91;96.03;101244.06;103732;1281;100456;-77
2023/02/16 08:35:07;;;;;;;111.80;54.10;;;;;;;1.96;96.09;101240.19;103595;1280;98133;-77
2023/02/16 08:37:53;;;;;;;100.90;47.70;;;;;;;2.00;96.08;101248.46;104061;1279;98376;-88
2023/02/16 08:40:47;;;;;;;110.90;52.70;;;;;;;2.05;95.89;101246.20;104477;1281;98518;-79
2023/02/16 08:43:31;;;;;;;104.10;51.20;;;;;;;2.09;95.90;101240.20;103769;1278;101450;-77
2023/02/16 08:46:17;;;;;;;100.80;48.90;;;;;;;2.16;96.09;101234.05;103842;1281;99210;-77
2023/02/16 08:49:02;;;;;;;103.40;51.40;;;;;;;2.20;95.86;101234.92;103717;1278;100149;-77
2023/02/16 08:51:50;;;;;;;105.00;49.50;;;;;;;2.25;95.83;101237.73;103797;1278;98037;-78
2023/02/16 08:54:35;;;;;;;98.20;48.70;;;;;;;2.29;95.70;101238.09;103864;1278;98042;-79
2023/02/16 08:57:20;;;;;;;100.90;49.70;;;;;;;2.34;95.60;101234.18;103893;1281;102558;-77
2023/02/16 09:03:08;;;;;;;111.80;53.10;;;;;;;2.42;95.31;101239.23;103665;1282;98822;-77
2023/02/16 09:05:53;;;;;;;108.60;54.90;;;;;;;2.45;95.07;101243.25;103742;1282;98009;-77
2023/02/16 09:08:39;;;;;;;108.30;52.30;;;;;;;2.49;95.09;101243.95;103690;1280;98036;-76
2023/02/16 09:11:24;;;;;;;107.60;51.40;;;;;;;2.55;95.02;101237.67;103839;1282;102683;-77
2023/02/16 09:14:09;;;;;;;96.80;46.60;;;;;;;2.60;94.89;101238.69;103720;1276;99231;-76
2023/02/16 09:16:54;;;;;;;95.20;48.00;;;;;;;2.65;94.93;101241.27;103775;1281;99029;-76
2023/02/16 09:19:39;;;;;;;96.90;49.30;;;;;;;2.71;94.88;101244.00;103771;1279;98061;-77
2023/02/16 09:22:24;;;;;;;103.00;49.50;;;;;;;2.77;94.60;101255.09;103747;1282;98568;-76
2023/02/16 09:25:10;;;;;;;97.50;46.50;;;;;;;2.81;94.36;101252.31;103721;1279;101519;-76
2023/02/16 09:27:54;;;;;;;93.80;45.40;;;;;;;2.85;94.06;101254.13;103660;1279;100554;-76
2023/02/16 09:30:39;;;;;;;95.40;47.90;;;;;;;2.87;93.88;101248.99;103564;1279;99888;-75
2023/02/16 09:33:25;;;;;;;101.50;52.50;;;;;;;2.92;94.06;101242.95;103625;1282;98027;-76
2023/02/16 09:36:11;;;;;;;97.60;50.60;;;;;;;2.98;93.96;101246.34;103610;1281;99716;-77
2023/02/16 09:38:57;;;;;;;100.70;48.20;;;;;;;3.03;93.79;101242.92;103537;1282;101390;-77
2023/02/16 09:42:10;;;;;;;104.50;50.10;;;;;;;3.07;93.68;101244.72;103560;1280;100433;-76
2023/02/16 09:45:01;;;;;;;100.70;50.90;;;;;;;3.12;93.46;101241.67;103563;1279;99946;-77
2023/02/16 09:47:49;;;;;;;108.90;54.80;;;;;;;3.17;93.45;101242.23;103671;1278;98120;-77
2023/02/16 09:50:34;;;;;;;103.00;52.80;;;;;;;3.23;93.61;101240.84;103566;1279;99624;-74
2023/02/16 09:53:35;;;;;;;104.10;51.00;;;;;;;3.30;93.66;101235.87;103771;1280;101500;-77
2023/02/16 09:56:44;;;;;;;92.70;42.60;;;;;;;3.36;93.51;101236.55;103802;1282;100571;-74
2023/02/16 10:00:28;;;;;;;99.10;47.70;;;;;;;3.41;93.11;101234.33;103835;1282;97912;-77
2023/02/16 10:03:58;;;;;;;97.40;49.00;;;;;;;3.46;93.00;101232.17;103250;1285;98138;-77
2023/02/16 10:07:31;;;;;;;90.90;43.80;;;;;;;3.50;92.85;101227.44;103416;1286;98471;-76
2023/02/16 10:10:29;;;;;;;94.60;45.70;;;;;;;3.60;92.99;101222.06;103838;1278;101451;-76
2023/02/16 10:13:37;;;;;;;102.90;56.30;;;;;;;3.67;92.95;101217.70;103846;1279;100636;-77
2023/02/16 10:16:28;;;;;;;91.70;46.60;;;;;;;3.77;93.15;101213.16;103848;1282;97921;-76
2023/02/16 10:19:25;;;;;;;92.10;46.20;;;;;;;3.86;93.00;101211.54;103780;1282;97989;-77
2023/02/16 10:22:14;;;;;;;96.00;49.20;;;;;;;3.94;92.62;101210.86;103819;1280;98913;-76
2023/02/16 10:25:04;;;;;;;103.50;50.90;;;;;;;4.02;92.54;101202.02;103716;1279;101337;-77
2023/02/16 10:28:10;;;;;;;89.20;43.00;;;;;;;4.10;92.49;101199.27;103774;1279;100482;-76
2023/02/16 10:31:11;;;;;;;98.80;48.40;;;;;;;4.16;92.34;101198.72;103808;1282;99209;-75
2023/02/16 10:34:15;;;;;;;93.10;46.30;;;;;;;4.23;92.38;101195.80;103741;1279;97948;-76
2023/02/16 10:37:08;;;;;;;95.00;45.80;;;;;;;4.29;92.17;101193.52;103739;1279;98678;-77
2023/02/16 10:40:11;;;;;;;90.10;45.40;;;;;;;4.33;91.87;101190.63;103702;1281;101506;-76
2023/02/16 10:43:04;;;;;;;86.20;44.30;;;;;;;4.39;91.69;101191.41;103636;1280;100486;-78
2023/02/16 10:45:52;;;;;;;86.80;43.20;;;;;;;4.43;91.45;101189.75;103587;1282;99319;-76
2023/02/16 10:48:37;;;;;;;82.60;42.60;;;;;;;4.48;91.38;101189.13;103805;1282;99187;-76
2023/02/16 10:51:27;;;;;;;84.70;43.10;;;;;;;4.54;91.17;101192.16;103792;1278;98008;-76
2023/02/16 10:54:19;;;;;;;89.20;45.50;;;;;;;4.60;91.21;101187.95;103711;1279;102833;-75
2023/02/16 10:57:24;;;;;;;83.20;44.40;;;;;;;4.66;91.18;101182.61;103728;1282;99146;-76
2023/02/16 11:00:21;;;;;;;88.30;44.50;;;;;;;4.75;91.50;101183.44;103748;1280;98004;-76
2023/02/16 11:03:11;;;;;;;85.30;43.60;;;;;;;4.83;91.21;101184.11;105804;1276;98049;-78
2023/02/16 11:05:55;;;;;;;87.00;45.50;;;;;;;4.90;91.15;101181.04;103882;1275;97933;-77
2023/02/16 11:08:49;;;;;;;82.40;40.60;;;;;;;4.97;91.35;101178.98;103885;1276;101436;-75
2023/02/16 11:11:37;;;;;;;84.50;42.30;;;;;;;5.03;91.02;101177.31;103923;1279;99274;-78
2023/02/16 11:14:29;;;;;;;86.70;43.10;;;;;;;5.09;91.04;101171.09;103759;1283;98997;-78
2023/02/16 11:17:16;;;;;;;89.90;46.10;;;;;;;5.15;91.03;101167.69;103727;1277;98001;-77
2023/02/16 11:20:05;;;;;;;82.40;41.80;;;;;;;5.23;91.11;101163.66;103857;1279;98197;-77
2023/02/16 11:22:50;;;;;;;88.40;44.50;;;;;;;5.31;91.10;101162.02;103815;1276;102735;-76
2023/02/16 11:25:35;;;;;;;91.40;42.80;;;;;;;5.37;90.95;101165.33;103791;1279;100486;-74
2023/02/16 11:28:33;;;;;;;83.90;42.40;;;;;;;5.42;90.60;101163.29;103773;1277;99277;-75
2023/02/16 11:31:23;;;;;;;78.00;40.00;;;;;;;5.47;90.49;101160.67;103781;1277;99340;-77
2023/02/16 11:37:24;;;;;;;82.00;41.10;;;;;;;5.61;90.40;101156.98;104988;1274;102451;-76
2023/02/16 11:40:27;;;;;;;80.40;42.20;;;;;;;5.66;90.13;101158.57;103839;1279;100205;-75
2023/02/16 11:43:16;;;;;;;87.90;43.80;;;;;;;5.71;89.87;101161.45;103674;1282;98951;-76
2023/02/16 11:46:14;;;;;;;94.30;45.40;;;;;;;5.74;89.84;101159.63;103718;1280;98025;-78
2023/02/16 11:49:20;;;;;;;98.20;48.00;;;;;;;5.74;89.31;101162.09;103794;1280;98482;-76
2023/02/16 11:52:21;;;;;;;112.30;51.40;;;;;;;5.74;89.47;101160.39;103775;1279;101459;-75
2023/02/16 11:55:43;;;;;;;127.60;59.10;;;;;;;5.76;89.67;101158.24;103844;1277;100886;-75
2023/02/16 11:58:28;;;;;;;108.40;53.90;;;;;;;5.78;89.62;101154.61;103850;1279;98436;-76
2023/02/16 12:01:41;;;;;;;146.70;72.60;;;;;;;5.82;89.50;101150.73;103939;1279;98001;-76
2023/02/16 12:04:35;;;;;;;110.90;56.00;;;;;;;5.86;89.66;101151.41;103824;1280;98781;-76
2023/02/16 12:07:53;;;;;;;107.50;53.20;;;;;;;5.93;90.11;101154.16;103875;1276;102698;-75
2023/02/16 12:11:06;;;;;;;122.50;59.40;;;;;;;5.97;89.92;101153.41;103857;1276;99956;-77
2023/02/16 12:14:05;;;;;;;99.20;48.80;;;;;;;5.98;89.51;101154.66;103797;1279;98536;-78
2023/02/16 12:17:16;;;;;;;98.00;49.30;;;;;;;6.01;89.76;101152.30;103825;1279;99236;-77
2023/02/16 12:20:13;;;;;;;118.90;60.70;;;;;;;6.04;89.68;101149.16;103829;1277;98014;-77
2023/02/16 12:23:17;;;;;;;93.80;46.90;;;;;;;6.10;89.92;101145.05;103805;1277;101461;-77
2023/02/16 12:26:46;;;;;;;84.90;44.50;;;;;;;6.17;90.22;101142.83;103826;1276;99178;-77
2023/02/16 12:30:08;;;;;;;73.70;39.70;;;;;;;6.21;89.75;101141.49;103822;1279;98045;-77
2023/02/16 12:33:06;;;;;;;78.90;41.30;;;;;;;6.21;89.27;101138.50;103853;1282;98001;-77
2023/02/16 12:36:16;;;;;;;77.10;41.90;;;;;;;6.21;89.34;101137.60;103734;1279;98465;-76
2023/02/16 12:39:11;;;;;;;76.60;40.80;;;;;;;6.24;89.41;101140.36;104338;1275;102368;-82
2023/02/16 12:42:15;;;;;;;77.60;40.60;;;;;;;6.27;89.30;101138.84;104441;1276;99093;-78
2023/02/16 12:45:37;;;;;;;82.70;43.30;;;;;;;6.30;89.37;101136.27;105069;1277;97887;-85
2023/02/16 12:48:52;;;;;;;79.30;41.80;;;;;;;6.32;89.22;101135.67;104762;1277;98010;-84
2023/02/16 12:51:44;;;;;;;85.10;43.60;;;;;;;6.36;89.46;101137.06;104845;1276;98007;-86
2023/02/16 12:54:47;;;;;;;90.20;48.10;;;;;;;6.42;89.44;101134.58;104808;1277;101395;-81
2023/02/16 12:57:34;;;;;;;78.50;42.70;;;;;;;6.46;89.35;101133.93;105027;1277;99382;-79
2023/02/16 13:00:25;;;;;;;90.40;47.80;;;;;;;6.51;89.19;101129.95;105082;1276;98014;-83
2023/02/16 13:03:27;;;;;;;108.40;53.50;;;;;;;6.55;89.08;101126.86;104670;1282;98004;-82
2023/02/16 13:06:18;;;;;;;87.70;49.20;;;;;;;6.61;89.09;101120.48;104797;1276;97890;-84
2023/02/16 13:09:19;;;;;;;90.60;46.60;;;;;;;6.65;88.90;101116.80;104709;1276;102804;-84
2023/02/16 13:12:20;;;;;;;84.90;43.50;;;;;;;6.70;88.96;101117.95;105183;1276;100094;-82
2023/02/16 13:15:37;;;;;;;83.00;44.50;;;;;;;6.75;88.95;101119.73;105264;1276;97923;-84
2023/02/16 13:18:27;;;;;;;88.80;46.60;;;;;;;6.79;88.37;101115.69;104044;1279;98003;-78
2023/02/16 13:21:38;;;;;;;81.70;46.10;;;;;;;6.78;88.17;101116.58;103958;1276;98091;-78
2023/02/16 13:24:44;;;;;;;82.40;43.50;;;;;;;6.80;88.34;101114.84;103987;1279;101903;-78
2023/02/16 13:27:50;;;;;;;79.30;43.10;;;;;;;6.80;87.93;101113.61;104880;1276;99263;-93
2023/02/16 13:30:47;;;;;;;80.80;43.10;;;;;;;6.79;88.00;101108.88;104763;1277;99956;-83
2023/02/16 13:33:54;;;;;;;80.10;42.50;;;;;;;6.78;88.15;101109.98;104898;1282;98446;-84
2023/02/16 13:36:58;;;;;;;86.30;44.00;;;;;;;6.77;88.16;101104.08;104693;1277;97880;-85
2023/02/16 13:40:04;;;;;;;80.10;41.70;;;;;;;6.78;88.08;101100.66;104797;1279;102775;-84
2023/02/16 13:43:17;;;;;;;85.10;48.70;;;;;;;6.77;88.08;101100.21;104835;1276;100275;-86